Time;durP1;ratioP1;P1;durP2;ratioP2;P2;SDS_P1;SDS_P2;PMS_P1;PMS_P2;Temp;Humidity;BMP_temperature;BMP_pressure;BME280_temperature;BME280_humidity;BME280_pressure;Samples;Min_cycle;Max_cycle;Signal;HPM_P1;HPM_P2
2022/10/08 00:00:12;;;;;;;20.65;13.00;;;;;;;11.77;79.39;101012.81;1680564;84;25897;-83
2022/10/08 00:02:40;;;;;;;22.15;14.68;;;;;;;11.76;79.40;101006.30;1683344;84;25902;-83
2022/10/08 00:05:07;;;;;;;16.37;12.65;;;;;;;11.72;79.44;101005.81;1680345;84;25778;-84
2022/10/08 00:07:33;;;;;;;16.70;11.97;;;;;;;11.72;79.51;101007.69;1685116;84;25853;-83
2022/10/08 00:10:00;;;;;;;18.42;12.60;;;;;;;11.71;79.57;101006.00;1683714;84;28361;-83
2022/10/08 00:12:26;;;;;;;17.77;12.93;;;;;;;11.69;79.65;100995.97;1688439;84;25306;-84
2022/10/08 00:14:52;;;;;;;15.53;12.30;;;;;;;11.68;79.65;100994.28;1687907;84;25892;-83
2022/10/08 00:17:19;;;;;;;19.17;11.80;;;;;;;11.67;79.55;100992.13;1677909;84;25863;-83
2022/10/08 00:19:45;;;;;;;17.05;12.45;;;;;;;11.63;79.49;100986.78;1686461;84;25312;-84
2022/10/08 00:22:12;;;;;;;18.55;12.05;;;;;;;11.61;79.52;100983.45;1687591;84;27427;-83
2022/10/08 00:24:38;;;;;;;15.43;11.08;;;;;;;11.58;79.64;100979.28;1690251;84;25863;-84
2022/10/08 00:27:05;;;;;;;38.73;18.70;;;;;;;11.57;79.71;100972.23;1686605;84;25721;-84
2022/10/08 00:29:32;;;;;;;37.25;18.82;;;;;;;11.57;79.90;100980.28;1682537;84;25941;-84
2022/10/08 00:31:58;;;;;;;27.48;16.15;;;;;;;11.58;80.12;100974.41;1693335;84;26402;-83
2022/10/08 00:34:24;;;;;;;35.00;17.77;;;;;;;11.58;80.18;100974.41;1676470;84;27868;-83
2022/10/08 00:36:54;;;;;;;36.45;19.85;;;;;;;11.57;80.13;100957.98;1683430;84;25926;-84
2022/10/08 00:39:23;;;;;;;29.67;15.63;;;;;;;11.56;80.34;100957.67;1684149;84;25836;-83
2022/10/08 00:41:53;;;;;;;23.77;14.38;;;;;;;11.54;80.46;100954.34;1674649;84;25779;-84
2022/10/08 00:44:52;;;;;;;24.37;15.70;;;;;;;11.51;80.34;100953.35;1677872;84;25795;-83
2022/10/08 00:47:28;;;;;;;18.73;13.30;;;;;;;11.46;80.21;100947.20;1680581;84;27462;-83
2022/10/08 00:50:02;;;;;;;21.07;14.28;;;;;;;11.41;80.28;100947.44;1638669;85;25819;-83
2022/10/08 00:52:33;;;;;;;25.88;13.95;;;;;;;11.38;80.30;100943.27;1657837;85;25811;-84
2022/10/08 00:55:05;;;;;;;;;;;;;;;11.34;80.20;100935.77;1635446;85;25974;-83
2022/10/08 00:57:34;;;;;;;14.60;11.65;;;;;;;11.31;80.28;100931.59;1618233;87;25784;-83
2022/10/08 01:00:18;;;;;;;17.02;11.65;;;;;;;11.26;80.33;100934.52;1687343;84;27466;-83
2022/10/08 01:02:44;;;;;;;17.82;12.60;;;;;;;11.24;80.44;100932.53;1645270;85;25873;-83
2022/10/08 01:05:15;;;;;;;17.50;12.25;;;;;;;11.19;80.39;100918.83;1683193;84;25524;-83
2022/10/08 01:07:53;;;;;;;16.05;12.00;;;;;;;11.18;80.37;100920.70;1676625;84;25789;-83
2022/10/08 01:10:58;;;;;;;18.30;13.00;;;;;;;11.19;80.37;100918.83;1646017;85;25780;-84
2022/10/08 01:13:30;;;;;;;17.73;12.88;;;;;;;11.18;80.39;100909.13;1677767;84;28287;-83
2022/10/08 01:16:17;;;;;;;26.27;14.70;;;;;;;11.16;80.51;100905.27;1643978;86;26155;-83
2022/10/08 01:19:07;;;;;;;20.35;14.23;;;;;;;11.17;80.76;100900.75;1635162;86;25875;-83
2022/10/08 01:21:54;;;;;;;25.08;15.65;;;;;;;11.15;80.88;100898.26;1619247;87;26038;-84
2022/10/08 01:27:41;;;;;;;19.65;13.32;;;;;;;11.15;81.58;100898.26;1686031;84;27466;-84
2022/10/08 01:30:15;;;;;;;18.73;13.68;;;;;;;11.16;81.76;100887.84;1643870;85;25812;-85
2022/10/08 01:33:11;;;;;;;20.80;12.85;;;;;;;11.16;81.98;100882.48;1690104;84;25516;-85
2022/10/08 01:35:42;;;;;;;16.97;12.58;;;;;;;11.15;81.96;100885.35;1678826;84;25890;-83
2022/10/08 01:38:13;;;;;;;17.92;13.18;;;;;;;11.13;81.79;100878.84;1673810;84;25312;-84
2022/10/08 01:40:43;;;;;;;25.92;14.47;;;;;;;11.15;81.96;100875.97;1673520;84;27845;-83
2022/10/08 01:43:13;;;;;;;20.30;13.65;;;;;;;11.17;82.05;100876.12;1685139;84;26839;-83
2022/10/08 01:45:47;;;;;;;18.75;13.08;;;;;;;11.18;82.41;100873.77;1674819;84;26334;-83
2022/10/08 01:48:19;;;;;;;18.50;12.88;;;;;;;11.20;82.42;100877.60;1674589;84;26593;-83
2022/10/08 01:50:54;;;;;;;19.17;13.00;;;;;;;11.21;82.52;100873.39;1682117;84;25814;-83
2022/10/08 01:53:24;;;;;;;20.15;12.73;;;;;;;11.24;82.95;100869.51;1688516;84;27469;-83
2022/10/08 01:55:54;;;;;;;19.52;12.53;;;;;;;11.29;83.26;100864.44;1682871;84;25352;-83
2022/10/08 01:58:42;;;;;;;17.40;11.65;;;;;;;11.32;83.46;100861.37;1676592;84;25843;-83
2022/10/08 02:01:17;;;;;;;15.48;11.88;;;;;;;11.34;83.92;100848.10;1682513;84;26547;-84
2022/10/08 02:04:31;;;;;;;18.23;12.28;;;;;;;11.39;84.51;100852.91;1656869;84;25838;-83
2022/10/08 02:06:12;;;;;;;18.70;12.43;;;;;;;11.42;84.52;100857.39;1647145;86;27647;-83
2022/10/08 02:08:38;;;;;;;20.48;12.47;;;;;;;11.46;84.92;100851.97;1689108;84;25884;-84
2022/10/08 02:11:06;;;;;;;15.85;12.15;;;;;;;11.50;85.09;100848.42;1696558;84;25864;-83
2022/10/08 02:13:32;;;;;;;19.70;12.35;;;;;;;11.52;85.20;100844.55;1683338;84;25775;-83
2022/10/08 02:16:10;;;;;;;18.52;12.47;;;;;;;11.57;85.45;100847.98;1692674;84;25813;-83
2022/10/08 02:18:45;;;;;;;17.95;13.43;;;;;;;11.60;85.63;100857.01;1682877;84;27585;-84
2022/10/08 02:21:23;;;;;;;16.93;13.72;;;;;;;11.63;85.79;100852.09;1688009;84;25919;-83
2022/10/08 02:24:01;;;;;;;18.17;13.58;;;;;;;11.69;86.07;100855.09;1678233;84;25967;-84
2022/10/08 02:26:32;;;;;;;17.77;12.53;;;;;;;11.72;86.13;100850.70;1674792;84;25777;-83
2022/10/08 02:29:26;;;;;;;16.90;12.10;;;;;;;11.75;86.31;100845.78;1686643;84;25931;-83
2022/10/08 02:32:04;;;;;;;20.75;13.00;;;;;;;11.78;86.36;100849.94;1690457;84;27471;-84
2022/10/08 02:34:36;;;;;;;20.08;12.85;;;;;;;11.79;86.20;100846.22;1649393;84;26032;-84
2022/10/08 02:37:23;;;;;;;16.42;12.03;;;;;;;11.82;86.32;100839.14;1674580;84;25846;-85
2022/10/08 02:40:04;;;;;;;17.55;12.85;;;;;;;11.83;86.35;100840.29;1678420;84;25861;-84
2022/10/08 02:42:32;;;;;;;17.32;12.37;;;;;;;11.85;86.43;100836.91;1691526;84;33210;-83
2022/10/08 02:45:06;;;;;;;16.15;12.88;;;;;;;11.86;86.42;100830.53;1675838;84;28118;-83
2022/10/08 02:47:36;;;;;;;15.78;12.28;;;;;;;11.88;86.24;100833.02;1672173;84;25876;-83
2022/10/08 02:50:08;;;;;;;14.83;12.23;;;;;;;11.87;86.10;100832.17;1650555;84;25858;-83
2022/10/08 02:52:39;;;;;;;19.75;12.78;;;;;;;11.88;86.08;100828.98;1686582;84;25843;-83
2022/10/08 02:55:30;;;;;;;16.10;12.33;;;;;;;11.87;86.01;100830.84;1685229;84;25967;-84
2022/10/08 02:58:04;;;;;;;16.10;12.70;;;;;;;11.86;85.90;100827.84;1690773;84;27584;-83
2022/10/08 03:00:35;;;;;;;22.00;15.40;;;;;;;11.85;86.22;100830.20;1672719;84;25358;-84
2022/10/08 03:03:10;;;;;;;15.25;12.55;;;;;;;11.84;86.34;100825.86;1679904;84;25845;-84
2022/10/08 03:05:40;;;;;;;17.25;12.95;;;;;;;11.86;86.44;100831.03;1671124;84;25852;-83
2022/10/08 03:08:09;;;;;;;20.40;13.95;;;;;;;11.87;86.93;100828.15;1693826;84;26060;-84
2022/10/08 03:10:38;;;;;;;19.45;13.90;;;;;;;11.89;87.48;100832.82;1683187;84;27493;-84
2022/10/08 03:13:06;;;;;;;17.98;14.28;;;;;;;11.91;88.07;100829.97;1689741;84;25972;-83
2022/10/08 03:15:35;;;;;;;20.68;14.28;;;;;;;11.94;88.72;100833.59;1687219;84;25879;-84
2022/10/08 03:18:08;;;;;;;26.27;15.30;;;;;;;11.97;88.95;100827.36;1675646;84;25748;-83
2022/10/08 03:20:44;;;;;;;26.20;15.80;;;;;;;12.02;89.29;100822.73;1687996;84;25888;-83
2022/10/08 03:23:14;;;;;;;23.47;16.35;;;;;;;12.05;89.53;100823.70;1681392;84;27459;-84
2022/10/08 03:25:41;;;;;;;23.02;15.68;;;;;;;12.07;89.63;100822.50;1680383;84;25926;-84
2022/10/08 03:28:07;;;;;;;23.38;15.72;;;;;;;12.11;89.90;100821.59;1678614;83;25850;-84
2022/10/08 03:30:34;;;;;;;18.75;15.05;;;;;;;12.14;90.08;100821.22;1698890;83;26397;-83
2022/10/08 03:33:00;;;;;;;19.90;15.50;;;;;;;12.17;90.30;100815.45;1680260;84;25346;-84
2022/10/08 03:35:27;;;;;;;22.35;16.23;;;;;;;12.20;90.33;100819.95;1685763;84;27477;-84
2022/10/08 03:37:53;;;;;;;25.97;16.42;;;;;;;12.23;90.64;100815.52;1688336;84;25819;-84
2022/10/08 03:40:21;;;;;;;24.37;16.82;;;;;;;12.26;90.64;100808.94;1690671;84;26005;-84
2022/10/08 03:42:47;;;;;;;22.77;15.93;;;;;;;12.30;90.70;100806.18;1684192;84;26587;-83
2022/10/08 03:45:13;;;;;;;24.18;16.82;;;;;;;12.32;90.75;100800.10;1692895;84;25854;-84
2022/10/08 03:47:40;;;;;;;25.23;17.85;;;;;;;12.35;90.80;100796.54;1678383;84;27456;-84
2022/10/08 03:50:07;;;;;;;21.20;15.60;;;;;;;12.40;90.72;100801.34;1686407;84;25864;-84
2022/10/08 03:52:33;;;;;;;24.52;16.65;;;;;;;12.42;90.78;100799.28;1680156;84;25950;-83
2022/10/08 03:55:00;;;;;;;22.87;16.70;;;;;;;12.45;90.75;100803.41;1682663;84;26548;-84
2022/10/08 03:57:26;;;;;;;24.57;17.42;;;;;;;12.48;90.90;100804.38;1673483;84;26237;-83
2022/10/08 03:59:52;;;;;;;20.62;16.15;;;;;;;12.52;91.16;100812.37;1687314;84;27571;-83
2022/10/08 04:02:19;;;;;;;25.05;17.75;;;;;;;12.53;91.19;100804.11;1687923;84;25935;-84
2022/10/08 04:04:45;;;;;;;23.25;16.52;;;;;;;12.55;91.34;100806.11;1685758;84;25830;-83
2022/10/08 04:07:11;;;;;;;26.02;17.10;;;;;;;12.58;91.51;100799.49;1682923;84;26686;-84
2022/10/08 04:09:37;;;;;;;20.92;16.15;;;;;;;12.59;91.67;100800.67;1682527;83;25903;-84
2022/10/08 04:12:04;;;;;;;23.45;18.10;;;;;;;12.63;91.70;100797.91;1649271;84;27631;-84
2022/10/08 04:14:30;;;;;;;23.22;17.40;;;;;;;12.66;91.84;100798.84;1676398;84;26612;-83
2022/10/08 04:16:56;;;;;;;21.48;16.93;;;;;;;12.68;91.94;100800.02;1676658;84;25793;-84
2022/10/08 04:19:22;;;;;;;28.87;18.17;;;;;;;12.70;91.94;100798.77;1676007;84;26670;-83
2022/10/08 04:21:49;;;;;;;21.90;15.98;;;;;;;12.72;92.02;100798.08;1691251;84;25750;-84
2022/10/08 04:24:15;;;;;;;22.15;15.60;;;;;;;12.75;92.06;100799.02;1687232;84;27469;-84
2022/10/08 04:26:41;;;;;;;19.95;15.93;;;;;;;12.77;92.16;100800.16;1689362;84;25896;-84
2022/10/08 04:29:08;;;;;;;23.85;16.80;;;;;;;12.80;92.28;100801.12;1679255;84;25859;-84
2022/10/08 04:31:34;;;;;;;22.58;16.52;;;;;;;12.82;92.40;100799.06;1682112;84;25840;-84
2022/10/08 04:34:00;;;;;;;21.45;15.98;;;;;;;12.83;92.58;100798.86;1682003;84;25959;-83
2022/10/08 04:36:26;;;;;;;20.80;15.63;;;;;;;12.85;92.51;100796.80;1680779;83;27564;-84
2022/10/08 04:38:53;;;;;;;22.20;16.20;;;;;;;12.87;92.70;100799.31;1691515;83;25824;-83
2022/10/08 04:41:23;;;;;;;23.92;17.65;;;;;;;12.89;92.55;100799.95;1685039;84;25945;-83
2022/10/08 04:43:51;;;;;;;25.97;17.48;;;;;;;12.92;92.45;100798.19;1686791;83;25882;-84
2022/10/08 04:46:20;;;;;;;25.10;17.02;;;;;;;12.94;92.51;100792.94;1680235;84;25660;-84
2022/10/08 04:48:50;;;;;;;19.73;15.45;;;;;;;12.96;92.48;100801.64;1679836;84;27482;-83
2022/10/08 04:51:18;;;;;;;23.80;16.70;;;;;;;12.98;92.45;100793.40;1678020;84;25889;-83
2022/10/08 04:53:45;;;;;;;26.37;18.57;;;;;;;13.01;92.55;100798.36;1677883;84;25919;-83
2022/10/08 04:56:19;;;;;;;21.35;16.12;;;;;;;13.02;92.55;100796.00;1696099;84;26359;-84
2022/10/08 04:58:46;;;;;;;21.60;16.67;;;;;;;13.03;92.66;100803.03;1683622;83;26318;-84
2022/10/08 05:01:16;;;;;;;19.70;16.40;;;;;;;13.04;92.70;100802.85;1674565;84;27307;-83
2022/10/08 05:03:45;;;;;;;25.17;17.87;;;;;;;13.05;92.64;100796.46;1681152;83;25747;-84
2022/10/08 05:06:17;;;;;;;21.77;16.65;;;;;;;13.06;92.65;100794.61;1688211;84;25732;-83
2022/10/08 05:08:43;;;;;;;22.27;16.57;;;;;;;13.09;92.71;100792.34;1681067;83;25744;-83
2022/10/08 05:11:12;;;;;;;21.70;16.07;;;;;;;13.09;92.68;100791.00;1679986;84;25338;-83
2022/10/08 05:13:39;;;;;;;26.30;17.60;;;;;;;13.12;92.76;100796.50;1688881;83;28299;-83
2022/10/08 05:16:09;;;;;;;21.55;16.07;;;;;;;13.12;92.76;100789.78;1680998;84;25372;-83
2022/10/08 05:18:37;;;;;;;22.85;16.95;;;;;;;13.13;92.86;100788.73;1688371;84;33162;-84
2022/10/08 05:21:07;;;;;;;22.32;16.60;;;;;;;13.13;92.98;100789.56;1655593;85;25918;-83
2022/10/08 05:23:34;;;;;;;25.62;17.60;;;;;;;13.16;93.05;100797.77;1674893;83;25860;-83
2022/10/08 05:26:16;;;;;;;26.48;16.82;;;;;;;13.18;93.12;100793.52;1681816;83;27606;-83
2022/10/08 05:28:45;;;;;;;21.55;16.42;;;;;;;13.19;93.11;100794.69;1688007;83;25900;-84
2022/10/08 05:31:14;;;;;;;22.85;16.62;;;;;;;13.21;93.15;100801.20;1635682;87;25802;-85
2022/10/08 05:33:41;;;;;;;27.52;18.75;;;;;;;13.24;93.20;100804.86;1687051;83;26426;-85
2022/10/08 05:36:12;;;;;;;20.97;17.70;;;;;;;13.24;93.25;100808.35;1692717;84;25857;-85
2022/10/08 05:38:38;;;;;;;23.57;16.73;;;;;;;13.25;93.26;100804.64;1682733;83;27541;-85
2022/10/08 05:41:11;;;;;;;21.23;16.52;;;;;;;13.27;93.26;100807.97;1697233;83;25556;-84
2022/10/08 05:43:38;;;;;;;25.77;17.57;;;;;;;13.29;93.20;100807.25;1692400;83;25348;-85
2022/10/08 05:46:06;;;;;;;29.15;17.32;;;;;;;13.30;93.25;100807.55;1693704;83;25809;-84
2022/10/08 05:48:32;;;;;;;20.43;16.37;;;;;;;13.34;93.22;100812.03;1690583;83;25817;-85
2022/10/08 05:51:08;;;;;;;24.60;17.82;;;;;;;13.35;93.21;100809.14;1664334;84;27484;-84
2022/10/08 05:53:37;;;;;;;22.27;16.65;;;;;;;13.36;93.19;100811.33;1655725;85;25847;-84
2022/10/08 05:56:07;;;;;;;26.10;17.75;;;;;;;13.39;93.29;100810.91;1683937;84;25800;-84
2022/10/08 05:58:36;;;;;;;24.18;17.52;;;;;;;13.41;93.27;100816.95;1689615;83;25744;-84
2022/10/08 06:01:07;;;;;;;23.60;17.57;;;;;;;13.44;93.35;100818.71;1692038;83;25871;-84
2022/10/08 06:03:34;;;;;;;25.55;18.40;;;;;;;13.46;93.35;100815.30;1629039;86;27487;-84
2022/10/08 06:06:04;;;;;;;22.87;18.32;;;;;;;13.48;93.38;100813.75;1658763;84;25876;-84
2022/10/08 06:08:33;;;;;;;22.22;17.80;;;;;;;13.51;93.43;100819.58;1640605;86;25750;-84
2022/10/08 06:10:59;;;;;;;23.10;18.23;;;;;;;13.53;93.45;100812.14;1631828;86;26026;-84
2022/10/08 06:13:27;;;;;;;22.70;17.40;;;;;;;13.57;93.45;100812.05;1695044;83;25733;-85
2022/10/08 06:15:57;;;;;;;21.97;17.35;;;;;;;13.60;93.49;100822.39;1697565;83;27455;-84
2022/10/08 06:18:26;;;;;;;24.70;17.73;;;;;;;13.62;93.50;100814.94;1695250;83;25763;-84
2022/10/08 06:20:53;;;;;;;22.45;16.95;;;;;;;13.65;93.54;100815.91;1692255;84;25310;-84
2022/10/08 06:23:21;;;;;;;24.95;17.02;;;;;;;13.71;93.56;100820.47;1637528;87;25825;-84
2022/10/08 06:25:48;;;;;;;23.42;17.62;;;;;;;13.76;93.58;100822.56;1691469;83;25882;-84
2022/10/08 06:28:14;;;;;;;25.90;17.77;;;;;;;13.79;93.51;100823.52;1689055;83;28310;-84
2022/10/08 06:30:42;;;;;;;22.07;17.87;;;;;;;13.83;93.50;100823.42;1687241;83;26020;-84
2022/10/08 06:33:10;;;;;;;30.68;18.80;;;;;;;13.87;93.53;100825.52;1663589;84;25802;-84
2022/10/08 06:35:37;;;;;;;24.55;18.20;;;;;;;13.89;93.52;100827.48;1685618;84;26285;-84
2022/10/08 06:38:04;;;;;;;23.15;17.73;;;;;;;13.93;93.53;100830.09;1688209;83;25871;-85
2022/10/08 06:40:38;;;;;;;22.85;16.75;;;;;;;13.96;93.51;100830.20;1688378;83;27459;-84
2022/10/08 06:43:08;;;;;;;21.95;17.87;;;;;;;13.99;93.46;100828.44;1665720;84;26012;-85
2022/10/08 06:45:38;;;;;;;21.87;17.32;;;;;;;14.02;93.40;100828.55;1654953;85;26023;-84
2022/10/08 06:48:04;;;;;;;21.65;17.45;;;;;;;14.06;93.40;100828.45;1654189;85;26022;-84
2022/10/08 06:50:32;;;;;;;24.50;18.95;;;;;;;14.10;93.39;100837.78;1644268;85;25966;-84
2022/10/08 06:52:58;;;;;;;26.05;18.23;;;;;;;14.15;93.46;100836.16;1687633;84;28249;-84
2022/10/08 06:55:24;;;;;;;24.12;17.85;;;;;;;14.16;93.42;100841.00;1692675;83;26424;-84
2022/10/08 06:57:51;;;;;;;22.58;17.25;;;;;;;14.18;93.41;100834.38;1688757;84;25886;-84
2022/10/08 07:00:18;;;;;;;24.72;17.75;;;;;;;14.21;93.29;100838.53;1688960;84;25763;-84
2022/10/08 07:02:45;;;;;;;21.62;18.00;;;;;;;14.25;93.39;100835.74;1685678;84;25804;-84
2022/10/08 07:05:11;;;;;;;24.32;17.52;;;;;;;14.29;93.40;100832.98;1677722;84;27475;-84
2022/10/08 07:07:38;;;;;;;21.15;16.62;;;;;;;14.33;93.38;100837.75;1676000;84;25914;-84
2022/10/08 07:10:05;;;;;;;23.70;18.77;;;;;;;14.38;93.30;100834.45;1687254;84;25789;-84
2022/10/08 07:12:31;;;;;;;27.82;18.10;;;;;;;14.43;93.43;100834.67;1686677;84;25824;-84
2022/10/08 07:14:59;;;;;;;25.95;18.05;;;;;;;14.47;93.27;100835.91;1639158;86;25538;-83
2022/10/08 07:17:27;;;;;;;24.40;17.30;;;;;;;14.52;93.41;100837.48;1658775;84;27534;-83
2022/10/08 07:19:55;;;;;;;22.20;16.93;;;;;;;14.57;93.38;100828.23;1635684;85;26590;-83
2022/10/08 07:22:22;;;;;;;22.40;17.40;;;;;;;14.60;93.24;100831.38;1664279;84;25683;-82
2022/10/08 07:24:49;;;;;;;23.95;16.37;;;;;;;14.65;93.21;100829.38;1664719;84;25801;-82
2022/10/08 07:27:17;;;;;;;23.25;16.77;;;;;;;14.70;93.26;100828.25;1632723;86;26726;-82
2022/10/08 07:29:43;;;;;;;21.45;17.20;;;;;;;14.75;93.19;100828.46;1663264;84;28308;-84
2022/10/08 07:32:09;;;;;;;21.33;16.93;;;;;;;14.80;93.09;100827.84;1687977;83;26262;-85
2022/10/08 07:34:36;;;;;;;21.45;16.17;;;;;;;14.84;92.84;100823.69;1688763;83;25971;-84
2022/10/08 07:37:02;;;;;;;24.12;16.32;;;;;;;14.89;92.94;100827.40;1687811;84;26646;-84
2022/10/08 07:39:28;;;;;;;20.02;16.52;;;;;;;14.94;92.96;100823.57;1682214;84;25799;-84
2022/10/08 07:41:55;;;;;;;28.07;18.20;;;;;;;14.99;92.87;100821.05;1682629;83;27469;-83
2022/10/08 07:44:21;;;;;;;23.80;18.48;;;;;;;15.05;92.83;100823.45;1669646;84;26010;-84
2022/10/08 07:46:49;;;;;;;21.02;15.88;;;;;;;15.10;92.67;100818.23;1646838;86;25739;-85
2022/10/08 07:49:18;;;;;;;20.37;15.80;;;;;;;15.16;92.46;100814.71;1688405;84;26565;-84
2022/10/08 07:51:45;;;;;;;19.85;16.15;;;;;;;15.19;92.41;100817.80;1653494;85;26311;-84
2022/10/08 07:54:16;;;;;;;22.62;16.32;;;;;;;15.22;92.43;100812.00;1683310;84;27628;-84
2022/10/08 07:56:43;;;;;;;19.55;16.02;;;;;;;15.24;92.22;100807.22;1650933;86;25896;-85
2022/10/08 07:59:13;;;;;;;20.95;16.40;;;;;;;15.28;92.02;100806.27;1687972;84;25288;-85
2022/10/08 08:01:39;;;;;;;21.42;16.02;;;;;;;15.30;91.99;100803.67;1683571;84;25861;-84
2022/10/08 08:04:08;;;;;;;19.60;16.12;;;;;;;15.34;91.83;100798.66;1675464;84;25759;-84
2022/10/08 08:06:47;;;;;;;22.77;15.90;;;;;;;15.38;91.73;100803.42;1680493;84;28270;-84
2022/10/08 08:09:15;;;;;;;21.40;15.00;;;;;;;15.41;91.61;100798.12;1678829;84;25959;-85
2022/10/08 08:11:41;;;;;;;20.10;15.28;;;;;;;15.46;91.70;100798.88;1679956;84;25911;-84
2022/10/08 08:14:07;;;;;;;22.07;16.82;;;;;;;15.53;91.75;100802.35;1651925;86;26463;-84
2022/10/08 08:16:34;;;;;;;20.35;15.48;;;;;;;15.60;91.85;100798.59;1669275;84;25809;-84
2022/10/08 08:19:01;;;;;;;20.50;15.18;;;;;;;15.66;91.78;100805.00;1686697;83;28413;-84
2022/10/08 08:21:32;;;;;;;18.40;15.03;;;;;;;15.75;91.82;100801.85;1685605;84;25946;-84
2022/10/08 08:24:06;;;;;;;20.40;14.93;;;;;;;15.84;91.59;100797.03;1692200;83;26275;-84
2022/10/08 08:26:36;;;;;;;24.70;16.32;;;;;;;15.90;91.44;100801.05;1679331;84;26618;-84
2022/10/08 08:29:10;;;;;;;19.23;14.83;;;;;;;15.97;91.21;100801.02;1684254;84;25787;-84
2022/10/08 08:31:44;;;;;;;22.25;14.38;;;;;;;16.03;91.02;100805.55;1682416;84;27546;-85
2022/10/08 08:34:15;;;;;;;17.85;15.38;;;;;;;16.12;90.85;100801.55;1679975;84;25836;-84
2022/10/08 08:36:47;;;;;;;23.92;16.25;;;;;;;16.15;90.77;100791.63;1691172;83;25575;-84
2022/10/08 08:39:24;;;;;;;27.32;19.95;;;;;;;16.23;90.62;100790.55;1675829;84;26495;-84
2022/10/08 08:42:04;;;;;;;27.13;18.90;;;;;;;16.29;90.35;100793.22;1682646;83;25725;-84
2022/10/08 08:44:40;;;;;;;32.83;21.87;;;;;;;16.38;90.15;100793.23;1691363;83;27492;-85
2022/10/08 08:47:41;;;;;;;30.08;21.62;;;;;;;16.44;89.94;100791.53;1699245;83;26328;-85
2022/10/08 08:50:24;;;;;;;27.70;18.55;;;;;;;16.46;89.37;100794.33;1688635;84;25829;-84
2022/10/08 08:52:51;;;;;;;38.88;21.45;;;;;;;16.50;89.54;100788.81;1618949;87;25945;-84
2022/10/08 08:55:23;;;;;;;23.40;17.48;;;;;;;16.58;89.42;100788.53;1658178;85;25954;-85
2022/10/08 08:58:06;;;;;;;25.75;17.55;;;;;;;16.66;89.43;100790.11;1642850;85;28237;-85
2022/10/08 09:00:37;;;;;;;29.27;19.80;;;;;;;16.75;89.06;100795.55;1628149;86;25837;-80
2022/10/08 09:03:21;;;;;;;34.05;22.10;;;;;;;16.85;89.09;100792.64;1687541;84;25839;-84
2022/10/08 09:05:52;;;;;;;25.48;18.10;;;;;;;16.92;88.66;100796.64;1675686;84;25781;-88
2022/10/08 09:08:35;;;;;;;27.60;19.12;;;;;;;17.00;88.47;100796.89;1703440;83;25860;-86
2022/10/08 09:11:04;;;;;;;29.70;20.08;;;;;;;17.08;88.24;100795.24;1692645;84;27562;-89
2022/10/08 09:13:40;;;;;;;20.55;16.10;;;;;;;17.15;88.14;100800.06;1681898;84;25760;-89
2022/10/08 09:16:15;;;;;;;22.70;15.78;;;;;;;17.18;87.51;100792.31;1695978;84;26023;-87
2022/10/08 09:18:48;;;;;;;24.15;13.28;;;;;;;17.21;87.01;100783.75;1679694;84;25849;-85
2022/10/08 09:21:15;;;;;;;16.07;12.13;;;;;;;17.26;86.76;100785.76;1686564;84;25894;-84
2022/10/08 09:23:42;;;;;;;28.90;17.07;;;;;;;17.31;86.48;100784.56;1691553;84;28423;-84
2022/10/08 09:26:24;;;;;;;20.82;14.78;;;;;;;17.35;86.58;100781.70;1648815;85;25824;-88
2022/10/08 09:28:56;;;;;;;16.73;13.05;;;;;;;17.39;86.64;100782.90;1650668;85;25817;-86
2022/10/08 09:31:44;;;;;;;16.23;12.73;;;;;;;17.43;86.38;100781.39;1685270;84;25840;-88
2022/10/08 09:34:17;;;;;;;19.37;12.88;;;;;;;17.51;86.37;100773.81;1669434;84;25792;-88
2022/10/08 09:36:53;;;;;;;15.53;12.53;;;;;;;17.60;86.45;100779.75;1652715;85;28435;-87
2022/10/08 09:39:36;;;;;;;18.67;13.85;;;;;;;17.66;86.14;100778.86;1683556;84;25335;-88
2022/10/08 09:42:11;;;;;;;16.00;11.83;;;;;;;17.71;85.92;100780.34;1693323;84;25796;-88
2022/10/08 09:44:51;;;;;;;16.10;12.33;;;;;;;17.79;85.99;100777.34;1678695;84;26438;-88
2022/10/08 09:47:23;;;;;;;13.75;11.10;;;;;;;17.87;85.54;100777.01;1686802;83;25915;-88
2022/10/08 09:50:17;;;;;;;19.60;12.20;;;;;;;17.95;85.28;100777.20;1686172;83;28312;-87
2022/10/08 09:52:48;;;;;;;14.98;11.73;;;;;;;18.02;85.27;100780.13;1683877;84;25819;-86
2022/10/08 09:55:25;;;;;;;15.48;11.65;;;;;;;18.10;85.38;100785.22;1675202;84;25380;-85
2022/10/08 09:57:59;;;;;;;13.45;10.48;;;;;;;18.17;84.70;100780.53;1688162;83;25836;-86
2022/10/08 10:00:36;;;;;;;16.27;10.32;;;;;;;18.19;83.45;100784.36;1679697;83;25922;-86
2022/10/08 10:03:06;;;;;;;13.95;11.22;;;;;;;18.21;83.29;100780.88;1685553;84;27502;-89
2022/10/08 10:05:35;;;;;;;14.05;10.43;;;;;;;18.21;82.52;100769.52;1684334;84;25838;-85
2022/10/08 10:08:03;;;;;;;13.05;10.70;;;;;;;18.24;83.09;100766.88;1662592;85;26446;-89
2022/10/08 10:10:39;;;;;;;14.28;11.57;;;;;;;18.30;82.97;100770.84;1681309;84;26526;-86
2022/10/08 10:13:19;;;;;;;14.55;11.18;;;;;;;18.35;82.81;100766.04;1682710;84;25871;-86
2022/10/08 10:15:52;;;;;;;13.83;11.97;;;;;;;18.39;83.11;100765.34;1689870;84;27452;-82
2022/10/08 10:18:27;;;;;;;14.23;12.20;;;;;;;18.44;82.82;100761.45;1682589;84;25955;-91
2022/10/08 10:20:58;;;;;;;15.78;12.20;;;;;;;18.48;82.80;100763.14;1680380;84;25845;-87
2022/10/08 10:23:35;;;;;;;15.98;11.40;;;;;;;18.53;82.69;100765.16;1679062;84;26493;-87
2022/10/08 10:26:20;;;;;;;12.23;10.70;;;;;;;18.54;82.51;100760.05;1644628;85;25825;-93
2022/10/08 10:28:57;;;;;;;13.83;10.72;;;;;;;18.57;82.37;100752.78;1684290;84;27998;-88
2022/10/08 10:31:41;;;;;;;13.58;10.03;;;;;;;18.58;82.13;100752.56;1687441;84;25845;-84
2022/10/08 10:34:18;;;;;;;16.17;10.23;;;;;;;18.63;81.92;100750.47;1688533;84;26529;-83
2022/10/08 10:36:53;;;;;;;13.95;10.08;;;;;;;18.68;81.81;100746.53;1685095;84;25957;-84
2022/10/08 10:39:45;;;;;;;16.97;10.10;;;;;;;18.73;81.09;100743.42;1675620;84;26558;-81
2022/10/08 10:42:38;;;;;;;15.65;9.85;;;;;;;18.75;81.09;100737.23;1679054;84;27566;-85
2022/10/08 10:45:17;;;;;;;13.30;10.68;;;;;;;18.76;80.35;100737.50;1679970;84;25832;-85
2022/10/08 10:47:44;;;;;;;12.20;10.08;;;;;;;18.78;80.89;100738.09;1675716;84;25590;-83
2022/10/08 10:50:15;;;;;;;16.45;10.60;;;;;;;18.81;80.73;100730.02;1668374;84;26509;-83
2022/10/08 10:53:20;;;;;;;15.28;10.20;;;;;;;18.84;80.85;100732.27;1684745;84;25964;-81
2022/10/08 10:55:58;;;;;;;14.60;10.40;;;;;;;18.88;80.35;100726.66;1643070;85;27555;-82
2022/10/08 10:59:03;;;;;;;17.98;10.70;;;;;;;18.93;80.48;100722.15;1677753;84;25738;-86
2022/10/08 11:02:13;;;;;;;15.58;11.22;;;;;;;19.02;80.60;100714.47;1674028;84;25644;-85
2022/10/08 11:05:14;;;;;;;13.13;10.55;;;;;;;19.07;79.82;100714.58;1680051;84;26031;-88
2022/10/08 11:08:01;;;;;;;11.50;10.35;;;;;;;19.06;79.78;100712.92;1682644;84;25821;-88
2022/10/08 11:11:10;;;;;;;20.20;11.70;;;;;;;19.10;79.73;100708.66;1680577;84;27540;-86
2022/10/08 11:13:56;;;;;;;20.85;13.53;;;;;;;19.15;79.65;100714.20;1631922;86;25728;-88
2022/10/08 11:16:57;;;;;;;17.40;13.30;;;;;;;19.18;79.13;100703.67;1644316;86;25753;-88
2022/10/08 11:19:59;;;;;;;16.17;11.95;;;;;;;19.17;79.04;100703.40;1655495;86;26779;-85
2022/10/08 11:22:38;;;;;;;17.40;11.65;;;;;;;19.14;78.97;100695.72;1686065;84;25865;-84
2022/10/08 11:25:19;;;;;;;16.35;11.30;;;;;;;19.16;79.09;100689.52;1684529;84;27924;-79
2022/10/08 11:28:13;;;;;;;15.78;11.30;;;;;;;19.20;79.04;100689.32;1682901;84;25792;-87
2022/10/08 11:31:20;;;;;;;16.17;11.10;;;;;;;19.27;78.88;100691.10;1688604;84;25794;-84
2022/10/08 11:33:48;;;;;;;15.88;11.43;;;;;;;19.35;79.27;100681.23;1676193;84;25909;-84
2022/10/08 11:36:38;;;;;;;14.75;11.45;;;;;;;19.44;78.45;100684.67;1685427;84;25335;-84